createdAt,value
2018-06-21T00:00:13.278Z,71.01
2018-06-21T00:01:13.272Z,70.62
2018-06-21T00:02:13.274Z,71.11
2018-06-21T00:03:13.261Z,71.65
2018-06-21T00:04:13.251Z,71.36
2018-06-21T00:05:13.243Z,71.65
2018-06-21T00:06:13.235Z,72.23
2018-06-21T00:07:13.228Z,72.13
2018-06-21T00:08:13.222Z,71.36
2018-06-21T00:09:13.216Z,71.46
2018-06-21T00:10:13.208Z,71.55
2018-06-21T00:11:13.202Z,72.13
2018-06-21T00:12:13.194Z,72.23
2018-06-21T00:13:13.190Z,72.52
2018-06-21T00:14:13.182Z,72.42
2018-06-21T00:15:13.173Z,72.23
2018-06-21T00:16:13.165Z,72.52
2018-06-21T00:17:13.164Z,72.03
2018-06-21T00:18:13.153Z,72.13
2018-06-21T00:19:13.149Z,71.65
2018-06-21T00:20:13.143Z,70.98
2018-06-21T00:21:13.129Z,71.36
2018-06-21T00:22:13.129Z,71.46
2018-06-21T00:23:13.112Z,71.75
2018-06-21T00:24:13.109Z,71.55
2018-06-21T00:25:13.098Z,72.52
2018-06-21T00:26:13.095Z,72.23
2018-06-21T00:27:13.082Z,72.71
2018-06-21T00:28:13.078Z,72.61
2018-06-21T00:29:13.109Z,72.42
2018-06-21T00:30:13.064Z,72.52
2018-06-21T00:31:13.061Z,72.42
2018-06-21T00:32:13.049Z,72.71
2018-06-21T00:33:13.043Z,72.32
2018-06-21T00:34:13.037Z,72.42
2018-06-21T00:35:13.025Z,72.32
2018-06-21T00:36:13.019Z,72.03
2018-06-21T00:37:13.012Z,72.23
2018-06-21T00:38:13.007Z,72.42
2018-06-21T00:39:12.997Z,71.84
2018-06-21T00:40:12.991Z,71.75
2018-06-21T00:41:12.983Z,70.78
2018-06-21T00:42:12.978Z,71.55
2018-06-21T00:43:12.968Z,71.36
2018-06-21T00:44:12.965Z,71.94
2018-06-21T00:45:12.953Z,71.75
2018-06-21T00:46:12.949Z,72.42
2018-06-21T00:47:12.940Z,72.42
2018-06-21T00:48:12.928Z,71.91
2018-06-21T00:49:12.924Z,72.19
2018-06-21T00:50:12.925Z,71.65
2018-06-21T00:51:12.906Z,71.75
2018-06-21T00:52:12.901Z,71.46
2018-06-21T00:53:12.900Z,72.03
2018-06-21T00:54:12.888Z,72.52
2018-06-21T00:55:12.881Z,72.42
2018-06-21T00:56:12.877Z,72.58
2018-06-21T00:57:12.865Z,72.23
2018-06-21T00:58:12.861Z,72.00
2018-06-21T00:59:12.853Z,72.00
2018-06-21T01:00:12.851Z,72.03
2018-06-21T01:01:12.841Z,72.23
2018-06-21T01:02:12.833Z,72.23
2018-06-21T01:03:12.818Z,71.94
2018-06-21T01:04:12.824Z,71.84
2018-06-21T01:05:12.811Z,71.84
2018-06-21T01:06:12.802Z,72.58
2018-06-21T01:07:12.793Z,72.58
2018-06-21T01:08:12.785Z,73.25
2018-06-21T01:09:12.786Z,73.25
2018-06-21T01:10:12.773Z,72.86
2018-06-21T01:11:12.767Z,73.54
2018-06-21T01:12:12.758Z,73.38
2018-06-21T01:13:12.751Z,72.96
2018-06-21T01:14:12.741Z,72.67
2018-06-21T01:15:12.733Z,72.19
2018-06-21T01:16:12.729Z,72.38
2018-06-21T01:17:12.719Z,72.67
2018-06-21T01:18:12.713Z,72.23
2018-06-21T01:19:12.711Z,72.19
2018-06-21T01:20:12.696Z,71.81
2018-06-21T01:21:12.686Z,72.67
2018-06-21T01:22:12.694Z,72.71
2018-06-21T01:23:12.677Z,72.58
2018-06-21T01:24:12.667Z,72.38
2018-06-21T01:25:12.661Z,72.19
2018-06-21T01:26:12.655Z,72.19
2018-06-21T01:27:12.643Z,71.42
2018-06-21T01:28:12.639Z,72.00
2018-06-21T01:29:12.628Z,72.00
2018-06-21T01:30:12.631Z,72.48
2018-06-21T01:31:12.616Z,72.19
2018-06-21T01:32:12.608Z,72.48
2018-06-21T01:33:12.599Z,72.19
2018-06-21T01:34:12.593Z,72.09
2018-06-21T01:35:12.586Z,72.58
2018-06-21T01:36:12.577Z,72.86
2018-06-21T01:37:12.571Z,72.86
2018-06-21T01:38:12.576Z,72.86
2018-06-21T01:39:12.561Z,72.67
2018-06-21T01:40:12.551Z,72.29
2018-06-21T01:41:12.543Z,72.58
2018-06-21T01:42:12.539Z,71.81
2018-06-21T01:43:12.533Z,71.81
2018-06-21T01:44:12.517Z,72.58
2018-06-21T01:45:12.512Z,71.91
2018-06-21T01:46:12.507Z,72.00
2018-06-21T01:47:12.499Z,72.09
2018-06-21T01:48:12.489Z,71.91
2018-06-21T01:49:12.482Z,72.38
2018-06-21T01:50:12.475Z,72.48
2018-06-21T01:51:12.469Z,72.29
2018-06-21T01:52:12.459Z,72.67
2018-06-21T01:53:12.455Z,72.96
2018-06-21T01:54:12.443Z,73.25
2018-06-21T01:55:12.435Z,72.96
2018-06-21T01:56:12.429Z,72.48
2018-06-21T01:57:12.420Z,72.77
2018-06-21T01:58:12.409Z,72.48
2018-06-21T01:59:12.412Z,73.44
2018-06-21T02:00:12.402Z,73.25
2018-06-21T02:01:12.396Z,73.41
2018-06-21T02:02:12.382Z,73.25
2018-06-21T02:03:12.379Z,73.21
2018-06-21T02:04:12.366Z,72.83
2018-06-21T02:05:12.364Z,73.11
2018-06-21T02:06:12.346Z,73.21
2018-06-21T02:07:12.345Z,73.31
2018-06-21T02:08:12.337Z,73.60
2018-06-21T02:09:12.339Z,73.50
2018-06-21T02:10:12.323Z,73.69
2018-06-21T02:11:12.316Z,73.50
2018-06-21T02:12:12.311Z,73.21
2018-06-21T02:13:12.305Z,73.41
2018-06-21T02:14:12.294Z,73.21
2018-06-21T02:15:12.285Z,73.31
2018-06-21T02:16:12.278Z,72.83
2018-06-21T02:17:12.271Z,72.83
2018-06-21T02:18:12.268Z,73.21
2018-06-21T02:19:12.257Z,72.54
2018-06-21T02:20:12.249Z,72.44
2018-06-21T02:21:12.246Z,72.16
2018-06-21T02:22:12.234Z,72.16
2018-06-21T02:23:12.225Z,72.54
2018-06-21T02:24:12.216Z,73.31
2018-06-21T02:25:12.208Z,73.41
2018-06-21T02:26:12.202Z,73.66
2018-06-21T02:27:12.194Z,73.79
2018-06-21T02:28:12.186Z,73.88
2018-06-21T02:29:12.179Z,73.98
2018-06-21T02:30:12.179Z,74.43
2018-06-21T02:31:12.160Z,74.37
2018-06-21T02:32:12.163Z,74.27
2018-06-21T02:33:12.149Z,74.08
2018-06-21T02:34:12.196Z,74.46
2018-06-21T02:35:12.131Z,73.79
2018-06-21T02:36:12.128Z,73.50
2018-06-21T02:37:12.118Z,73.41
2018-06-21T02:38:12.118Z,73.41
2018-06-21T02:39:12.101Z,73.75
2018-06-21T02:40:12.093Z,73.85
2018-06-21T02:41:12.096Z,74.23
2018-06-21T02:42:12.084Z,73.85
2018-06-21T02:43:12.069Z,74.81
2018-06-21T02:44:12.074Z,75.00
2018-06-21T02:45:12.059Z,75.00
2018-06-21T02:46:12.052Z,74.90
2018-06-21T02:47:12.034Z,74.81
2018-06-21T02:48:12.032Z,75.10
2018-06-21T02:49:12.027Z,75.00
2018-06-21T02:50:12.016Z,74.81
2018-06-21T02:51:12.009Z,75.10
2018-06-21T02:52:12.016Z,74.90
2018-06-21T02:53:11.995Z,74.90
2018-06-21T02:54:11.987Z,74.81
2018-06-21T02:55:11.975Z,74.71
2018-06-21T02:56:11.973Z,75.00
2018-06-21T02:57:11.964Z,74.71
2018-06-21T02:58:11.955Z,75.00
2018-06-21T02:59:11.945Z,74.71
2018-06-21T03:00:11.938Z,74.71
2018-06-21T03:01:11.930Z,74.71
2018-06-21T03:02:11.927Z,74.90
2018-06-21T03:03:11.925Z,74.52
2018-06-21T03:04:11.907Z,74.52
2018-06-21T03:05:11.896Z,74.33
2018-06-21T03:06:11.889Z,74.13
2018-06-21T03:07:11.883Z,74.43
2018-06-21T03:08:11.873Z,74.33
2018-06-21T03:09:11.865Z,74.43
2018-06-21T03:10:11.859Z,74.04
2018-06-21T03:11:11.853Z,74.71
2018-06-21T03:12:11.844Z,74.23
2018-06-21T03:13:11.835Z,74.81
2018-06-21T03:14:11.833Z,74.62
2018-06-21T03:15:11.817Z,74.71
2018-06-21T03:16:11.808Z,74.81
2018-06-21T03:17:11.802Z,74.46
2018-06-21T03:18:11.793Z,73.88
2018-06-21T03:19:11.792Z,73.27
2018-06-21T03:20:11.782Z,73.41
2018-06-21T03:21:11.771Z,73.02
2018-06-21T03:22:11.766Z,72.89
2018-06-21T03:23:11.754Z,73.18
2018-06-21T03:24:11.745Z,73.27
2018-06-21T03:25:11.740Z,72.89
2018-06-21T03:26:11.726Z,73.18
2018-06-21T03:27:11.742Z,72.99
2018-06-21T03:28:11.733Z,72.99
2018-06-21T03:29:11.710Z,73.56
2018-06-21T03:30:11.705Z,73.46
2018-06-21T03:31:11.689Z,73.94
2018-06-21T03:32:11.687Z,74.43
2018-06-21T03:33:11.676Z,73.94
2018-06-21T03:34:11.673Z,73.85
2018-06-21T03:35:11.662Z,74.04
2018-06-21T03:36:11.652Z,73.94
2018-06-21T03:37:11.644Z,74.33
2018-06-21T03:38:11.636Z,74.04
2018-06-21T03:39:11.626Z,74.62
2018-06-21T03:40:11.617Z,74.33
2018-06-21T03:41:11.610Z,74.33
2018-06-21T03:42:11.599Z,74.23
2018-06-21T03:43:11.594Z,74.04
2018-06-21T03:44:11.585Z,74.33
2018-06-21T03:45:11.580Z,74.52
2018-06-21T03:46:11.578Z,74.90
2018-06-21T03:47:11.559Z,75.00
2018-06-21T03:48:11.550Z,75.00
2018-06-21T03:49:11.550Z,74.90
2018-06-21T03:50:11.542Z,74.90
2018-06-21T03:51:11.533Z,75.10
2018-06-21T03:52:11.581Z,74.81
2018-06-21T03:53:11.514Z,75.15
2018-06-21T03:54:11.505Z,74.77
2018-06-21T03:55:11.497Z,74.96
2018-06-21T03:56:11.489Z,75.10
2018-06-21T03:57:11.491Z,74.68
2018-06-21T03:58:11.479Z,74.96
2018-06-21T03:59:11.468Z,74.87
2018-06-21T04:00:11.467Z,74.96
2018-06-21T04:01:11.454Z,74.96
2018-06-21T04:02:11.439Z,74.87
2018-06-21T04:03:11.448Z,74.81
2018-06-21T04:04:11.438Z,74.68
2018-06-21T04:05:11.424Z,75.06
2018-06-21T04:06:11.414Z,74.77
2018-06-21T04:07:11.403Z,74.96
2018-06-21T04:08:11.396Z,74.77
2018-06-21T04:09:11.389Z,74.81
2018-06-21T04:10:11.379Z,74.87
2018-06-21T04:11:11.368Z,74.77
2018-06-21T04:12:11.365Z,74.87
2018-06-21T04:13:11.353Z,74.87
2018-06-21T04:14:11.351Z,74.87
2018-06-21T04:15:11.336Z,74.87
2018-06-21T04:16:11.329Z,74.96
2018-06-21T04:17:11.322Z,74.68
2018-06-21T04:18:11.314Z,75.25
2018-06-21T04:19:11.310Z,74.77
2018-06-21T04:20:11.306Z,75.45
2018-06-21T04:21:11.291Z,75.54
2018-06-21T04:22:11.281Z,75.35
2018-06-21T04:23:11.271Z,75.25
2018-06-21T04:24:11.269Z,75.35
2018-06-21T04:25:11.253Z,75.15
2018-06-21T04:26:11.246Z,75.54
2018-06-21T04:27:11.239Z,75.87
2018-06-21T04:28:11.234Z,75.87
2018-06-21T04:29:11.237Z,75.87
2018-06-21T04:30:11.219Z,75.38
2018-06-21T04:31:11.217Z,75.29
2018-06-21T04:32:11.202Z,75.57
2018-06-21T04:33:11.192Z,75.48
2018-06-21T04:34:11.182Z,75.77
2018-06-21T04:35:11.179Z,75.96
2018-06-21T04:36:11.174Z,75.96
2018-06-21T04:37:11.155Z,75.96
2018-06-21T04:38:11.152Z,76.34
2018-06-21T04:39:11.140Z,76.34
2018-06-21T04:40:11.137Z,76.06
2018-06-21T04:41:11.126Z,75.87
2018-06-21T04:42:11.123Z,75.87
2018-06-21T04:43:11.113Z,75.23
2018-06-21T04:44:11.100Z,76.09
2018-06-21T04:45:11.094Z,76.48
2018-06-21T04:46:11.087Z,76.48
2018-06-21T04:47:11.080Z,76.67
2018-06-21T04:48:11.070Z,77.34
2018-06-21T04:49:11.065Z,77.15
2018-06-21T04:50:11.058Z,77.06
2018-06-21T04:51:11.048Z,76.67
2018-06-21T04:52:11.042Z,76.86
2018-06-21T04:53:11.027Z,76.48
2018-06-21T04:54:11.061Z,75.90
2018-06-21T04:55:11.013Z,74.65
2018-06-21T04:56:11.005Z,74.85
2018-06-21T04:57:10.999Z,75.13
2018-06-21T04:58:10.991Z,75.81
2018-06-21T04:59:10.981Z,75.42
2018-06-21T05:00:11.067Z,74.94
2018-06-21T05:01:10.963Z,74.37
2018-06-21T05:02:10.963Z,74.65
2018-06-21T05:03:10.957Z,74.46
2018-06-21T05:04:10.946Z,75.04
2018-06-21T05:05:10.940Z,75.42
2018-06-21T05:06:10.926Z,75.71
2018-06-21T05:07:10.916Z,76.00
2018-06-21T05:08:10.911Z,76.48
2018-06-21T05:09:10.907Z,75.42
2018-06-21T05:10:10.901Z,74.85
2018-06-21T05:11:10.890Z,74.94
2018-06-21T05:12:10.883Z,75.32
2018-06-21T05:13:10.876Z,75.81
2018-06-21T05:14:10.864Z,75.62
2018-06-21T05:15:10.855Z,75.90
2018-06-21T05:16:10.851Z,76.00
2018-06-21T05:17:10.847Z,76.00
2018-06-21T05:18:10.837Z,75.81
2018-06-21T05:19:10.828Z,76.00
2018-06-21T05:20:10.820Z,76.19
2018-06-21T05:21:10.810Z,77.34
2018-06-21T05:22:10.802Z,77.25
2018-06-21T05:23:10.793Z,77.15
2018-06-21T05:24:10.789Z,76.00
2018-06-21T05:25:10.802Z,75.13
2018-06-21T05:26:10.771Z,75.13
2018-06-21T05:27:10.764Z,75.04
2018-06-21T05:28:10.760Z,74.46
2018-06-21T05:29:10.751Z,74.08
2018-06-21T05:30:10.745Z,74.65
2018-06-21T05:31:10.730Z,75.04
2018-06-21T05:32:10.779Z,75.52
2018-06-21T05:33:10.718Z,76.09
2018-06-21T05:34:10.708Z,76.19
2018-06-21T05:35:10.699Z,76.29
2018-06-21T05:36:10.690Z,76.48
2018-06-21T05:37:10.683Z,75.90
2018-06-21T05:38:10.678Z,75.62
2018-06-21T05:39:10.669Z,74.94
2018-06-21T05:40:10.661Z,75.32
2018-06-21T05:41:10.646Z,75.81
2018-06-21T05:42:10.648Z,76.67
2018-06-21T05:43:10.640Z,75.90
2018-06-21T05:44:10.638Z,76.57
2018-06-21T05:45:10.626Z,77.25
2018-06-21T05:46:10.620Z,76.96
2018-06-21T05:47:10.609Z,77.44
2018-06-21T05:48:10.594Z,77.73
2018-06-21T05:49:10.593Z,77.38
2018-06-21T05:50:10.633Z,77.06
2018-06-21T05:51:10.571Z,76.61
2018-06-21T05:52:10.571Z,74.79
2018-06-21T05:53:10.560Z,74.79
2018-06-21T05:54:10.547Z,74.79
2018-06-21T05:55:10.548Z,75.46
2018-06-21T05:56:10.542Z,75.17
2018-06-21T05:57:10.528Z,76.23
2018-06-21T05:58:10.526Z,76.90
2018-06-21T05:59:10.513Z,77.09
2018-06-21T06:00:10.507Z,76.32
2018-06-21T06:01:10.497Z,76.52
2018-06-21T06:02:10.485Z,76.90
2018-06-21T06:03:10.480Z,76.90
2018-06-21T06:04:10.473Z,77.04
2018-06-21T06:05:10.468Z,76.07
2018-06-21T06:06:10.459Z,75.98
2018-06-21T06:07:10.452Z,76.56
2018-06-21T06:08:10.498Z,76.17
2018-06-21T06:09:10.437Z,75.63
2018-06-21T06:10:10.464Z,75.54
2018-06-21T06:11:10.418Z,74.76
2018-06-21T06:12:10.416Z,74.86
2018-06-21T06:13:10.415Z,74.86
2018-06-21T06:14:10.461Z,75.44
2018-06-21T06:15:10.387Z,75.24
2018-06-21T06:16:10.384Z,75.34
2018-06-21T06:17:10.373Z,75.44
2018-06-21T06:18:10.365Z,75.57
2018-06-21T06:19:10.359Z,75.09
2018-06-21T06:20:10.354Z,75.19
2018-06-21T06:21:10.344Z,74.41
2018-06-21T06:22:10.340Z,74.51
2018-06-21T06:23:10.330Z,74.22
2018-06-21T06:24:10.325Z,74.65
2018-06-21T06:25:10.320Z,74.07
2018-06-21T06:26:10.306Z,74.07
2018-06-21T06:27:10.296Z,73.97
2018-06-21T06:28:10.294Z,73.97
2018-06-21T06:29:10.284Z,73.58
2018-06-21T06:30:10.283Z,73.24
2018-06-21T06:31:10.273Z,73.68
2018-06-21T06:32:10.261Z,74.36
2018-06-21T06:33:10.260Z,73.58
2018-06-21T06:34:10.251Z,73.20
2018-06-21T06:35:10.242Z,73.68
2018-06-21T06:36:10.238Z,73.88
2018-06-21T06:37:10.231Z,74.16
2018-06-21T06:38:10.223Z,74.26
2018-06-21T06:39:10.220Z,74.74
2018-06-21T06:40:10.210Z,74.30
2018-06-21T06:41:10.203Z,74.45
2018-06-21T06:42:10.204Z,75.13
2018-06-21T06:43:10.185Z,75.03
2018-06-21T06:44:10.178Z,74.93
2018-06-21T06:45:10.169Z,75.13
2018-06-21T06:46:10.182Z,75.07
2018-06-21T06:47:10.160Z,74.40
2018-06-21T06:48:10.152Z,74.97
2018-06-21T06:49:10.146Z,74.68
2018-06-21T06:50:10.140Z,74.97
2018-06-21T06:51:10.128Z,74.10
2018-06-21T06:52:10.122Z,74.43
2018-06-21T06:53:10.117Z,74.05
2018-06-21T06:54:10.114Z,74.05
2018-06-21T06:55:10.107Z,73.66
2018-06-21T06:56:10.101Z,73.99
2018-06-21T06:57:10.089Z,73.41
2018-06-21T06:58:10.087Z,73.11
2018-06-21T06:59:10.091Z,73.41
2018-06-21T07:00:10.067Z,73.63
2018-06-21T07:01:10.070Z,72.58
2018-06-21T07:02:10.065Z,71.22
2018-06-21T07:03:10.051Z,71.22
2018-06-21T07:04:10.045Z,70.54
2018-06-21T07:05:10.037Z,70.97
2018-06-21T07:06:10.031Z,71.26
2018-06-21T07:07:10.027Z,70.29
2018-06-21T07:08:10.020Z,69.71
2018-06-21T07:09:10.015Z,68.36
2018-06-21T07:10:10.007Z,67.82
2018-06-21T07:11:09.998Z,67.14
2018-06-21T07:12:09.994Z,66.17
2018-06-21T07:13:09.985Z,65.50
2018-06-21T07:14:10.041Z,65.11
2018-06-21T07:15:09.978Z,66.27
2018-06-21T07:16:09.972Z,66.17
2018-06-21T07:17:09.965Z,66.27
2018-06-21T07:18:09.954Z,66.20
2018-06-21T07:19:09.951Z,66.50
2018-06-21T07:20:09.949Z,66.20
2018-06-21T07:21:09.947Z,65.14
2018-06-21T07:22:09.931Z,64.47
2018-06-21T07:23:09.928Z,63.69
2018-06-21T07:24:09.922Z,64.37
2018-06-21T07:25:09.916Z,64.66
2018-06-21T07:26:09.908Z,64.89
2018-06-21T07:27:09.932Z,63.05
2018-06-21T07:28:09.901Z,62.76
2018-06-21T07:29:09.891Z,62.92
2018-06-21T07:30:09.901Z,63.11
2018-06-21T07:31:09.880Z,62.73
2018-06-21T07:32:09.871Z,62.66
2018-06-21T07:33:09.872Z,62.34
2018-06-21T07:34:09.866Z,61.86
2018-06-21T07:35:09.859Z,62.56
2018-06-21T07:36:09.849Z,63.60
2018-06-21T07:37:09.848Z,64.27
2018-06-21T07:38:09.842Z,63.92
2018-06-21T07:39:09.835Z,64.08
2018-06-21T07:40:09.828Z,64.50
2018-06-21T07:41:09.820Z,64.50
2018-06-21T07:42:09.819Z,63.79
2018-06-21T07:43:09.819Z,63.89
2018-06-21T07:44:09.810Z,63.21
2018-06-21T07:45:09.802Z,62.31
2018-06-21T07:46:09.805Z,61.92
2018-06-21T07:47:09.791Z,62.50
2018-06-21T07:48:09.783Z,62.31
2018-06-21T07:49:09.780Z,61.92
2018-06-21T07:50:09.775Z,61.92
2018-06-21T07:51:09.770Z,62.73
2018-06-21T07:52:09.764Z,62.44
2018-06-21T07:53:09.759Z,62.24
2018-06-21T07:54:09.751Z,62.34
2018-06-21T07:55:09.743Z,62.44
2018-06-21T07:56:09.733Z,62.63
2018-06-21T07:57:09.733Z,61.66
2018-06-21T07:58:09.728Z,63.14
2018-06-21T07:59:09.780Z,63.63
2018-06-21T08:00:09.715Z,62.47
2018-06-21T08:01:09.712Z,63.63
2018-06-21T08:02:09.708Z,64.21
2018-06-21T08:03:09.705Z,62.66
2018-06-21T08:04:09.694Z,61.43
2018-06-21T08:05:09.795Z,61.72
2018-06-21T08:06:09.688Z,62.40
2018-06-21T08:07:09.681Z,62.98
2018-06-21T08:08:09.672Z,62.40
2018-06-21T08:09:09.665Z,60.88
2018-06-21T08:10:09.664Z,59.63
2018-06-21T08:11:09.656Z,60.50
2018-06-21T08:12:09.658Z,59.53
2018-06-21T08:13:09.650Z,58.95
2018-06-21T08:14:09.643Z,58.53
2018-06-21T08:15:09.638Z,58.44
2018-06-21T08:16:09.634Z,57.79
2018-06-21T08:17:09.622Z,58.07
2018-06-21T08:18:09.627Z,58.37
2018-06-21T08:19:09.618Z,59.43
2018-06-21T08:20:09.627Z,59.91
2018-06-21T08:21:09.609Z,58.27
2018-06-21T08:22:09.604Z,57.50
2018-06-21T08:23:09.625Z,57.30
2018-06-21T08:24:09.589Z,58.37
2018-06-21T08:25:09.588Z,57.88
2018-06-21T08:26:09.585Z,57.62
2018-06-21T08:27:09.582Z,58.01
2018-06-21T08:28:09.573Z,58.01
2018-06-21T08:29:09.568Z,57.71
2018-06-21T08:30:09.567Z,57.53
2018-06-21T08:31:09.557Z,57.33
2018-06-21T08:32:09.608Z,57.62
2018-06-21T08:33:09.548Z,58.49
2018-06-21T08:34:09.542Z,57.40
2018-06-21T08:35:09.538Z,57.23
2018-06-21T08:36:09.529Z,56.85
2018-06-21T08:37:09.526Z,58.30
2018-06-21T08:38:09.524Z,58.69
2018-06-21T08:39:09.517Z,57.71
2018-06-21T08:40:09.508Z,58.69
2018-06-21T08:41:09.509Z,57.71
2018-06-21T08:42:09.503Z,57.50
2018-06-21T08:43:09.502Z,57.40
2018-06-21T08:44:09.493Z,57.88
2018-06-21T08:45:09.490Z,57.69
2018-06-21T08:46:09.569Z,57.30
2018-06-21T08:47:09.477Z,57.04
2018-06-21T08:48:09.474Z,56.94
2018-06-21T08:49:09.468Z,56.07
2018-06-21T08:50:09.474Z,57.23
2018-06-21T08:51:09.467Z,57.33
2018-06-21T08:52:09.461Z,58.30
2018-06-21T08:53:09.455Z,58.01
2018-06-21T08:54:09.447Z,56.75
2018-06-21T08:55:09.446Z,55.00
2018-06-21T08:56:09.438Z,55.49
2018-06-21T08:57:09.434Z,55.30
2018-06-21T08:58:09.430Z,55.20
2018-06-21T08:59:09.428Z,55.00
2018-06-21T09:00:09.418Z,55.20
2018-06-21T09:01:10.031Z,55.17
2018-06-21T09:02:09.410Z,54.81
2018-06-21T09:03:09.405Z,56.16
2018-06-21T09:04:09.397Z,55.30
2018-06-21T09:05:09.401Z,55.30
2018-06-21T09:06:09.392Z,55.49
2018-06-21T09:07:09.384Z,55.20
2018-06-21T09:08:09.378Z,55.98
2018-06-21T09:09:09.377Z,55.10
2018-06-21T09:10:09.370Z,55.20
2018-06-21T09:11:09.367Z,56.16
2018-06-21T09:12:09.358Z,55.30
2018-06-21T09:13:09.361Z,54.26
2018-06-21T09:14:09.354Z,55.42
2018-06-21T09:15:09.378Z,54.33
2018-06-21T09:16:09.341Z,53.67
2018-06-21T09:17:09.333Z,54.33
2018-06-21T09:18:09.332Z,54.52
2018-06-21T09:19:09.326Z,53.36
2018-06-21T09:20:09.320Z,53.36
2018-06-21T09:21:09.340Z,53.17
2018-06-21T09:22:09.316Z,53.07
2018-06-21T09:23:09.312Z,54.30
2018-06-21T09:24:09.302Z,54.33
2018-06-21T09:25:09.297Z,54.13
2018-06-21T09:26:09.299Z,54.23
2018-06-21T09:27:09.295Z,53.55
2018-06-21T09:28:09.291Z,52.78
2018-06-21T09:29:09.279Z,53.36
2018-06-21T09:30:09.278Z,52.90
2018-06-21T09:31:09.271Z,53.29
2018-06-21T09:32:09.267Z,53.17
2018-06-21T09:33:09.267Z,52.58
2018-06-21T09:34:09.255Z,52.78
2018-06-21T09:35:09.254Z,52.58
2018-06-21T09:36:09.252Z,53.14
2018-06-21T09:37:09.240Z,53.43
2018-06-21T09:38:09.238Z,54.39
2018-06-21T09:39:09.233Z,54.52
2018-06-21T09:40:09.227Z,55.20
2018-06-21T09:41:09.231Z,54.33
2018-06-21T09:42:09.219Z,53.85
2018-06-21T09:43:09.212Z,53.75
2018-06-21T09:44:09.208Z,53.97
2018-06-21T09:45:09.206Z,53.09
2018-06-21T09:46:09.200Z,53.00
2018-06-21T09:47:09.226Z,53.58
2018-06-21T09:48:09.192Z,53.31
2018-06-21T09:49:09.186Z,52.03
2018-06-21T09:50:09.181Z,51.25
2018-06-21T09:51:09.181Z,51.64
2018-06-21T09:52:09.171Z,51.54
2018-06-21T09:53:09.165Z,54.06
2018-06-21T09:54:09.164Z,52.34
2018-06-21T09:55:09.163Z,51.76
2018-06-21T09:56:09.155Z,50.99
2018-06-21T09:57:09.153Z,52.34
2018-06-21T09:58:09.158Z,51.28
2018-06-21T09:59:09.141Z,51.25
2018-06-21T10:00:09.138Z,50.31
2018-06-21T10:01:09.135Z,51.28
2018-06-21T10:02:09.122Z,51.76
2018-06-21T10:03:09.124Z,50.99
2018-06-21T10:04:09.116Z,51.09
2018-06-21T10:05:09.115Z,52.34
2018-06-21T10:06:09.106Z,52.06
2018-06-21T10:07:09.142Z,53.31
2018-06-21T10:08:09.099Z,51.76
2018-06-21T10:09:09.099Z,50.50
2018-06-21T10:10:09.091Z,50.99
2018-06-21T10:11:09.089Z,50.79
2018-06-21T10:12:09.082Z,50.31
2018-06-21T10:13:09.083Z,50.79
2018-06-21T10:14:09.080Z,51.21
2018-06-21T10:15:09.071Z,49.46
2018-06-21T10:16:09.071Z,50.24
2018-06-21T10:17:09.059Z,49.27
2018-06-21T10:18:09.061Z,49.27
2018-06-21T10:19:09.051Z,51.40
2018-06-21T10:20:09.060Z,49.27
2018-06-21T10:21:09.052Z,51.11
2018-06-21T10:22:09.037Z,51.33
2018-06-21T10:23:09.086Z,51.14
2018-06-21T10:24:09.031Z,50.36
2018-06-21T10:25:09.024Z,50.74
2018-06-21T10:26:09.018Z,53.37
2018-06-21T10:27:09.018Z,51.62
2018-06-21T10:28:09.014Z,50.65
2018-06-21T10:29:09.008Z,52.50
2018-06-21T10:30:09.004Z,51.14
2018-06-21T10:31:08.999Z,50.87
2018-06-21T10:32:09.003Z,52.72
2018-06-21T10:33:08.989Z,50.87
2018-06-21T10:34:08.991Z,50.68
2018-06-21T10:35:09.066Z,50.77
2018-06-21T10:36:08.978Z,50.09
2018-06-21T10:37:08.977Z,51.06
2018-06-21T10:38:08.973Z,50.09
2018-06-21T10:39:08.969Z,47.47
2018-06-21T10:40:08.967Z,47.96
2018-06-21T10:41:08.962Z,47.08
2018-06-21T10:42:08.958Z,49.41
2018-06-21T10:43:08.963Z,45.92
2018-06-21T10:44:08.949Z,46.69
2018-06-21T10:45:08.944Z,46.41
2018-06-21T10:46:08.942Z,47.47
2018-06-21T10:47:08.941Z,47.28
2018-06-21T10:48:08.937Z,48.83
2018-06-21T10:49:08.984Z,47.28
2018-06-21T10:50:08.935Z,47.66
2018-06-21T10:51:08.923Z,47.18
2018-06-21T10:52:08.921Z,46.89
2018-06-21T10:53:08.917Z,46.50
2018-06-21T10:54:08.915Z,48.35
2018-06-21T10:55:08.908Z,48.44
2018-06-21T10:56:08.903Z,46.41
2018-06-21T10:57:08.954Z,46.01
2018-06-21T10:58:08.900Z,47.20
2018-06-21T10:59:08.892Z,47.59
2018-06-21T11:00:08.890Z,46.41
2018-06-21T11:01:08.888Z,46.23
2018-06-21T11:02:08.888Z,45.72
2018-06-21T11:03:08.886Z,46.81
2018-06-21T11:04:08.879Z,47.18
2018-06-21T11:05:08.876Z,47.38
2018-06-21T11:06:08.875Z,47.59
2018-06-21T11:07:08.865Z,48.25
2018-06-21T11:08:08.897Z,45.72
2018-06-21T11:09:08.861Z,46.01
2018-06-21T11:10:08.859Z,48.05
2018-06-21T11:11:08.848Z,49.05
2018-06-21T11:12:08.848Z,45.84
2018-06-21T11:13:08.846Z,46.62
2018-06-21T11:14:08.843Z,48.37
2018-06-21T11:15:08.837Z,48.47
2018-06-21T11:16:08.833Z,47.40
2018-06-21T11:17:08.833Z,47.88
2018-06-21T11:18:08.824Z,47.69
2018-06-21T11:19:08.820Z,47.71
2018-06-21T11:20:08.822Z,48.49
2018-06-21T11:21:08.816Z,47.13
2018-06-21T11:22:08.816Z,47.52
2018-06-21T11:23:08.810Z,46.45
2018-06-21T11:24:08.803Z,47.32
2018-06-21T11:25:08.802Z,45.77
2018-06-21T11:26:08.802Z,46.35
2018-06-21T11:27:08.802Z,48.10
2018-06-21T11:28:08.795Z,47.23
2018-06-21T11:29:08.791Z,48.30
2018-06-21T11:30:08.789Z,48.30
2018-06-21T11:31:08.785Z,48.66
2018-06-21T11:32:08.785Z,47.11
2018-06-21T11:33:08.778Z,48.57
2018-06-21T11:34:08.779Z,49.07
2018-06-21T11:35:08.766Z,48.30
2018-06-21T11:36:08.764Z,48.97
2018-06-21T11:37:08.766Z,48.68
2018-06-21T11:38:08.771Z,48.88
2018-06-21T11:39:08.754Z,49.27
2018-06-21T11:40:08.756Z,46.64
2018-06-21T11:41:08.752Z,46.74
2018-06-21T11:42:08.746Z,44.51
2018-06-21T11:43:08.745Z,45.97
2018-06-21T11:44:08.742Z,48.88
2018-06-21T11:45:08.741Z,47.23
2018-06-21T11:46:08.743Z,47.13
2018-06-21T11:47:08.732Z,46.15
2018-06-21T11:48:08.726Z,45.77
2018-06-21T11:49:08.727Z,46.35
2018-06-21T11:50:08.720Z,47.13
2018-06-21T11:51:08.721Z,46.15
2018-06-21T11:52:08.721Z,45.98
2018-06-21T11:53:08.715Z,45.09
2018-06-21T11:54:08.709Z,45.67
2018-06-21T11:55:08.705Z,45.18
2018-06-21T11:56:08.707Z,45.11
2018-06-21T11:57:08.699Z,44.72
2018-06-21T11:58:08.700Z,44.12
2018-06-21T11:59:08.692Z,43.85
2018-06-21T12:00:08.699Z,44.24
2018-06-21T12:01:08.690Z,43.07
2018-06-21T12:02:08.693Z,42.97
2018-06-21T12:03:08.687Z,43.85
2018-06-21T12:04:08.679Z,44.62
2018-06-21T12:05:08.681Z,44.24
2018-06-21T12:06:08.676Z,44.62
2018-06-21T12:07:08.666Z,44.14
2018-06-21T12:08:08.668Z,44.33
2018-06-21T12:09:08.665Z,44.04
2018-06-21T12:10:08.667Z,43.46
2018-06-21T12:11:08.659Z,44.33
2018-06-21T12:12:08.657Z,44.53
2018-06-21T12:13:08.663Z,44.43
2018-06-21T12:14:08.704Z,44.33
2018-06-21T12:15:08.646Z,46.57
2018-06-21T12:16:08.648Z,47.15
2018-06-21T12:17:08.639Z,45.89
2018-06-21T12:18:08.642Z,47.56
2018-06-21T12:19:08.636Z,46.20
2018-06-21T12:20:08.639Z,45.04
2018-06-21T12:21:08.634Z,45.62
2018-06-21T12:22:08.628Z,45.14
2018-06-21T12:23:08.627Z,44.35
2018-06-21T12:24:08.623Z,44.55
2018-06-21T12:25:08.624Z,44.74
2018-06-21T12:26:08.633Z,45.52
2018-06-21T12:27:08.611Z,45.23
2018-06-21T12:28:08.616Z,44.92
2018-06-21T12:29:08.618Z,45.62
2018-06-21T12:30:08.608Z,45.04
2018-06-21T12:31:08.605Z,44.55
2018-06-21T12:32:08.630Z,45.14
2018-06-21T12:33:08.600Z,46.88
2018-06-21T12:34:08.595Z,45.81
2018-06-21T12:35:08.594Z,47.30
2018-06-21T12:36:08.595Z,46.11
2018-06-21T12:37:08.588Z,46.32
2018-06-21T12:38:08.589Z,47.66
2018-06-21T12:39:08.591Z,47.86
2018-06-21T12:40:08.580Z,49.12
2018-06-21T12:41:08.584Z,48.83
2018-06-21T12:42:08.577Z,49.58
2018-06-21T12:43:08.576Z,49.51
2018-06-21T12:44:08.573Z,50.09
2018-06-21T12:45:08.569Z,49.99
2018-06-21T12:46:08.568Z,50.19
2018-06-21T12:47:08.565Z,50.68
2018-06-21T12:48:08.563Z,49.58
2018-06-21T12:49:08.561Z,51.72
2018-06-21T12:50:08.570Z,49.39
2018-06-21T12:51:08.559Z,49.97
2018-06-21T12:52:08.550Z,49.58